createdAt,value
2023-02-22T00:00:08.668Z,0
2023-02-22T00:01:08.636Z,0
2023-02-22T00:02:08.806Z,0
2023-02-22T00:03:08.557Z,0
2023-02-22T00:04:08.287Z,0
2023-02-22T00:05:08.493Z,0
2023-02-22T00:06:08.494Z,0
2023-02-22T00:07:08.465Z,0
2023-02-22T00:08:08.401Z,0
2023-02-22T00:09:08.426Z,0
2023-02-22T00:10:08.348Z,0
2023-02-22T00:11:08.308Z,0
2023-02-22T00:12:08.305Z,0
2023-02-22T00:13:08.275Z,0
2023-02-22T00:14:08.270Z,0
2023-02-22T00:15:08.210Z,0
2023-02-22T00:16:08.417Z,0
2023-02-22T00:17:08.104Z,0
2023-02-22T00:18:08.101Z,0
2023-02-22T00:19:08.059Z,0
2023-02-22T00:20:08.018Z,0
2023-02-22T00:21:08.133Z,0
2023-02-22T00:22:07.770Z,0
2023-02-22T00:23:07.946Z,0
2023-02-22T00:24:07.889Z,0
2023-02-22T00:25:07.916Z,0
2023-02-22T00:26:07.847Z,0
2023-02-22T00:27:07.830Z,0
2023-02-22T00:28:07.779Z,0
2023-02-22T00:29:07.779Z,0
2023-02-22T00:30:07.769Z,0
2023-02-22T00:31:07.661Z,0
2023-02-22T00:32:08.234Z,0
2023-02-22T00:33:07.375Z,0
2023-02-22T00:34:07.568Z,0
2023-02-22T00:35:07.526Z,0
2023-02-22T00:36:07.519Z,0
2023-02-22T00:37:07.468Z,0
2023-02-22T00:38:07.454Z,0
2023-02-22T00:39:07.464Z,0
2023-02-22T00:40:07.124Z,0
2023-02-22T00:41:07.424Z,0
2023-02-22T00:42:07.725Z,0
2023-02-22T00:43:07.326Z,0
2023-02-22T00:44:07.287Z,0
2023-02-22T00:45:07.240Z,0
2023-02-22T00:46:07.561Z,0
2023-02-22T00:47:06.967Z,0
2023-02-22T00:48:07.159Z,0
2023-02-22T00:49:07.135Z,0
2023-02-22T00:50:07.065Z,0
2023-02-22T00:51:07.069Z,0
2023-02-22T00:52:07.030Z,0
2023-02-22T00:53:06.976Z,0
2023-02-22T00:54:07.004Z,0
2023-02-22T00:55:06.934Z,0
2023-02-22T00:56:06.892Z,0
2023-02-22T00:57:06.906Z,0
2023-02-22T00:58:06.921Z,0
2023-02-22T00:59:06.797Z,0
2023-02-22T01:00:06.750Z,0
2023-02-22T01:01:06.963Z,0
2023-02-22T01:02:07.303Z,0
2023-02-22T01:03:07.093Z,0
2023-02-22T01:04:06.978Z,0
2023-02-22T01:05:06.560Z,0
2023-02-22T01:06:06.328Z,0
2023-02-22T01:07:06.539Z,0
2023-02-22T01:08:06.568Z,0
2023-02-22T01:09:06.482Z,0
2023-02-22T01:10:06.437Z,0
2023-02-22T01:11:06.553Z,0
2023-02-22T01:12:06.360Z,0
2023-02-22T01:13:06.432Z,0
2023-02-22T01:14:06.305Z,0
2023-02-22T01:15:06.300Z,0
2023-02-22T01:16:06.318Z,0
2023-02-22T01:17:06.296Z,0
2023-02-22T01:18:06.197Z,0
2023-02-22T01:19:06.179Z,0
2023-02-22T01:20:06.116Z,0
2023-02-22T01:21:06.076Z,0
2023-02-22T01:22:06.097Z,0
2023-02-22T01:23:06.140Z,0
2023-02-22T01:24:05.986Z,0
2023-02-22T01:25:05.960Z,0
2023-02-22T01:26:06.067Z,0
2023-02-22T01:27:05.677Z,0
2023-02-22T01:28:05.703Z,0
2023-02-22T01:29:05.878Z,0
2023-02-22T01:30:05.831Z,0
2023-02-22T01:31:06.705Z,0
2023-02-22T01:32:05.991Z,0
2023-02-22T01:33:05.757Z,0
2023-02-22T01:34:05.666Z,0
2023-02-22T01:35:05.650Z,0
2023-02-22T01:36:05.615Z,0
2023-02-22T01:37:05.596Z,0
2023-02-22T01:38:05.572Z,0
2023-02-22T01:39:05.514Z,0
2023-02-22T01:40:05.494Z,0
2023-02-22T01:41:05.448Z,0
2023-02-22T01:42:05.416Z,0
2023-02-22T01:43:05.467Z,0
2023-02-22T01:44:05.331Z,0
2023-02-22T01:45:05.376Z,0
2023-02-22T01:46:05.778Z,0
2023-02-22T01:47:05.261Z,0
2023-02-22T01:48:05.290Z,0
2023-02-22T01:49:05.226Z,0
2023-02-22T01:50:05.148Z,0
2023-02-22T01:51:05.156Z,0
2023-02-22T01:52:05.083Z,0
2023-02-22T01:53:05.058Z,0
2023-02-22T01:54:05.074Z,0
2023-02-22T01:55:05.018Z,0
2023-02-22T01:56:04.987Z,0
2023-02-22T01:57:04.936Z,0
2023-02-22T01:58:04.911Z,0
2023-02-22T01:59:04.892Z,0
2023-02-22T02:00:04.939Z,0
2023-02-22T02:01:04.863Z,0
2023-02-22T02:02:04.832Z,0
2023-02-22T02:03:04.749Z,0
2023-02-22T02:04:05.073Z,0
2023-02-22T02:05:05.079Z,0
2023-02-22T02:06:04.654Z,0
2023-02-22T02:07:04.602Z,0
2023-02-22T02:08:04.815Z,0
2023-02-22T02:09:04.547Z,0
2023-02-22T02:10:04.537Z,0
2023-02-22T02:11:04.510Z,0
2023-02-22T02:12:04.459Z,0
2023-02-22T02:13:04.438Z,0
2023-02-22T02:14:04.392Z,0
2023-02-22T02:15:04.390Z,0
2023-02-22T02:16:04.327Z,0
2023-02-22T02:17:04.772Z,0
2023-02-22T02:18:04.259Z,0
2023-02-22T02:19:04.244Z,0
2023-02-22T02:20:04.289Z,0
2023-02-22T02:21:04.198Z,0
2023-02-22T02:22:04.141Z,0
2023-02-22T02:23:03.856Z,0
2023-02-22T02:24:04.076Z,0
2023-02-22T02:25:04.031Z,0
2023-02-22T02:26:04.010Z,0
2023-02-22T02:27:03.985Z,0
2023-02-22T02:28:04.054Z,0
2023-02-22T02:29:03.925Z,0
2023-02-22T02:30:03.873Z,0
2023-02-22T02:31:03.631Z,0
2023-02-22T02:32:04.600Z,0
2023-02-22T02:33:03.841Z,0
2023-02-22T02:34:03.752Z,0
2023-02-22T02:35:03.734Z,0
2023-02-22T02:36:03.714Z,0
2023-02-22T02:37:03.683Z,0
2023-02-22T02:38:03.652Z,0
2023-02-22T02:39:03.788Z,0
2023-02-22T02:40:03.761Z,0
2023-02-22T02:41:03.529Z,0
2023-02-22T02:42:03.504Z,0
2023-02-22T02:43:03.469Z,0
2023-02-22T02:44:03.420Z,0
2023-02-22T02:45:03.423Z,0
2023-02-22T02:46:03.376Z,0
2023-02-22T02:47:03.614Z,0
2023-02-22T02:48:03.335Z,0
2023-02-22T02:49:03.446Z,0
2023-02-22T02:50:03.258Z,0
2023-02-22T02:51:03.228Z,0
2023-02-22T02:52:03.219Z,0
2023-02-22T02:53:03.262Z,0
2023-02-22T02:54:03.137Z,0
2023-02-22T02:55:03.157Z,0
2023-02-22T02:56:03.103Z,0
2023-02-22T02:57:03.049Z,0
2023-02-22T02:58:02.997Z,0
2023-02-22T02:59:02.947Z,0
2023-02-22T03:00:02.932Z,0
2023-02-22T03:01:03.041Z,0
2023-02-22T03:02:03.109Z,0
2023-02-22T03:03:02.901Z,0
2023-02-22T03:04:02.826Z,0
2023-02-22T03:05:02.817Z,0
2023-02-22T03:06:02.743Z,0
2023-02-22T03:07:02.790Z,0
2023-02-22T03:08:02.693Z,0
2023-02-22T03:09:02.658Z,0
2023-02-22T03:10:02.600Z,0
2023-02-22T03:11:02.359Z,0
2023-02-22T03:12:02.557Z,0
2023-02-22T03:13:02.498Z,0
2023-02-22T03:14:02.562Z,0
2023-02-22T03:15:02.483Z,0
2023-02-22T03:16:02.628Z,0
2023-02-22T03:17:02.394Z,0
2023-02-22T03:18:02.341Z,0
2023-02-22T03:19:02.357Z,0
2023-02-22T03:20:02.375Z,0
2023-02-22T03:21:02.394Z,0
2023-02-22T03:22:02.229Z,0
2023-02-22T03:23:02.176Z,0
2023-02-22T03:24:02.173Z,0
2023-02-22T03:25:02.202Z,0
2023-02-22T03:26:02.095Z,0
2023-02-22T03:27:02.070Z,0
2023-02-22T03:28:02.021Z,0
2023-02-22T03:29:02.009Z,0
2023-02-22T03:30:02.020Z,0
2023-02-22T03:31:02.218Z,0
2023-02-22T03:32:02.145Z,0
2023-02-22T03:33:01.853Z,0
2023-02-22T03:34:01.857Z,0
2023-02-22T03:35:01.841Z,0
2023-02-22T03:36:01.875Z,0
2023-02-22T03:37:01.812Z,0
2023-02-22T03:38:01.716Z,0
2023-02-22T03:39:01.684Z,0
2023-02-22T03:40:01.661Z,0
2023-02-22T03:41:01.692Z,0
2023-02-22T03:42:01.589Z,0
2023-02-22T03:43:01.542Z,0
2023-02-22T03:44:01.550Z,0
2023-02-22T03:45:01.481Z,0
2023-02-22T03:46:01.564Z,0
2023-02-22T03:47:01.480Z,0
2023-02-22T03:48:01.385Z,0
2023-02-22T03:49:01.355Z,0
2023-02-22T03:50:01.326Z,0
2023-02-22T03:51:01.310Z,0
2023-02-22T03:52:01.306Z,0
2023-02-22T03:53:01.264Z,0
2023-02-22T03:54:01.180Z,0
2023-02-22T03:55:01.247Z,0
2023-02-22T03:56:01.194Z,0
2023-02-22T03:57:01.121Z,0
2023-02-22T03:58:01.056Z,0
2023-02-22T03:59:01.068Z,0
2023-02-22T04:00:00.990Z,0
2023-02-22T04:01:00.946Z,0
2023-02-22T04:02:00.923Z,0
2023-02-22T04:03:01.136Z,0
2023-02-22T04:04:00.857Z,0
2023-02-22T04:05:01.121Z,0
2023-02-22T04:06:00.776Z,0
2023-02-22T04:07:00.800Z,0
2023-02-22T04:08:00.721Z,0
2023-02-22T04:09:00.892Z,0
2023-02-22T04:10:00.660Z,0
2023-02-22T04:11:00.626Z,0
2023-02-22T04:12:00.615Z,0
2023-02-22T04:13:00.581Z,0
2023-02-22T04:14:00.553Z,0
2023-02-22T04:15:00.558Z,0
2023-02-22T04:16:00.784Z,0
2023-02-22T04:17:00.414Z,0
2023-02-22T04:18:00.403Z,0
2023-02-22T04:19:00.376Z,0
2023-02-22T04:20:00.327Z,0
2023-02-22T04:21:00.302Z,0
2023-02-22T04:22:00.256Z,0
2023-02-22T04:23:00.242Z,0
2023-02-22T04:24:00.204Z,0
2023-02-22T04:25:00.216Z,0
2023-02-22T04:26:00.169Z,0
2023-02-22T04:27:00.128Z,0
2023-02-22T04:28:00.110Z,0
2023-02-22T04:29:00.055Z,0
2023-02-22T04:30:00.010Z,0
2023-02-22T04:31:00.261Z,0
2023-02-22T04:32:00.240Z,0
2023-02-22T04:32:59.905Z,0
2023-02-22T04:33:59.880Z,0
2023-02-22T04:34:59.832Z,0
2023-02-22T04:35:59.830Z,0
2023-02-22T04:36:59.774Z,0
2023-02-22T04:37:59.733Z,0
2023-02-22T04:38:59.752Z,0
2023-02-22T04:39:59.693Z,0
2023-02-22T04:40:59.735Z,0
2023-02-22T04:41:59.588Z,0
2023-02-22T04:42:59.741Z,0
2023-02-22T04:43:59.553Z,0
2023-02-22T04:44:59.537Z,0
2023-02-22T04:45:59.468Z,0
2023-02-22T04:46:59.448Z,0
2023-02-22T04:47:59.414Z,0
2023-02-22T04:48:59.373Z,0
2023-02-22T04:49:59.334Z,0
2023-02-22T04:50:59.101Z,0
2023-02-22T04:51:59.257Z,0
2023-02-22T04:52:59.221Z,0
2023-02-22T04:53:59.224Z,0
2023-02-22T04:54:59.236Z,0
2023-02-22T04:55:58.966Z,0
2023-02-22T04:56:59.140Z,0
2023-02-22T04:57:59.071Z,0
2023-02-22T04:58:58.811Z,0
2023-02-22T04:59:59.023Z,0
2023-02-22T05:00:59.010Z,0
2023-02-22T05:01:58.946Z,0
2023-02-22T05:02:59.157Z,0
2023-02-22T05:03:58.873Z,0
2023-02-22T05:04:59.227Z,0
2023-02-22T05:05:58.816Z,0
2023-02-22T05:07:01.731Z,0
2023-02-22T05:07:58.790Z,0
2023-02-22T05:08:58.682Z,0
2023-02-22T05:09:58.676Z,0
2023-02-22T05:10:58.652Z,0
2023-02-22T05:11:58.615Z,0
2023-02-22T05:12:58.615Z,0
2023-02-22T05:13:58.318Z,0
2023-02-22T05:14:58.572Z,0
2023-02-22T05:15:58.675Z,0
2023-02-22T05:16:58.456Z,0
2023-02-22T05:17:58.403Z,0
2023-02-22T05:18:58.392Z,0
2023-02-22T05:19:58.376Z,0
2023-02-22T05:20:58.515Z,0
2023-02-22T05:21:58.314Z,0
2023-02-22T05:22:58.285Z,0
2023-02-22T05:23:58.196Z,0
2023-02-22T05:24:58.193Z,0
2023-02-22T05:25:58.124Z,0
2023-02-22T05:26:57.926Z,0
2023-02-22T05:27:58.069Z,0
2023-02-22T05:28:58.074Z,0
2023-02-22T05:29:58.010Z,0
2023-02-22T05:30:58.068Z,0
2023-02-22T05:31:58.584Z,0
2023-02-22T05:32:58.019Z,0
2023-02-22T05:33:57.914Z,0
2023-02-22T05:34:57.827Z,0
2023-02-22T05:35:57.787Z,0
2023-02-22T05:36:57.745Z,0
2023-02-22T05:37:57.763Z,0
2023-02-22T05:38:57.717Z,0
2023-02-22T05:39:57.647Z,0
2023-02-22T05:40:57.654Z,0
2023-02-22T05:41:57.601Z,0
2023-02-22T05:42:58.649Z,0
2023-02-22T05:43:57.520Z,0
2023-02-22T05:44:57.553Z,0
2023-02-22T05:45:57.463Z,0
2023-02-22T05:46:57.613Z,0
2023-02-22T05:47:57.430Z,0
2023-02-22T05:48:57.392Z,0
2023-02-22T05:49:57.326Z,0
2023-02-22T05:50:57.332Z,0
2023-02-22T05:51:57.272Z,0
2023-02-22T05:52:57.216Z,0
2023-02-22T05:53:56.949Z,0
2023-02-22T05:54:57.220Z,0
2023-02-22T05:55:57.113Z,0
2023-02-22T05:56:57.081Z,0
2023-02-22T05:57:57.052Z,0
2023-02-22T05:58:57.050Z,0
2023-02-22T05:59:56.985Z,0
2023-02-22T06:00:57.000Z,0
2023-02-22T06:01:57.138Z,0
2023-02-22T06:02:56.869Z,0
2023-02-22T06:03:56.657Z,0
2023-02-22T06:04:56.850Z,0
2023-02-22T06:05:57.070Z,0
2023-02-22T06:06:56.753Z,0
2023-02-22T06:07:56.757Z,0
2023-02-22T06:08:56.715Z,0
2023-02-22T06:09:56.660Z,0
2023-02-22T06:10:56.628Z,0
2023-02-22T06:11:59.116Z,0
2023-02-22T06:12:56.586Z,0
2023-02-22T06:13:56.082Z,0
2023-02-22T06:14:56.558Z,0
2023-02-22T06:15:56.521Z,0
2023-02-22T06:16:56.464Z,0
2023-02-22T06:17:56.408Z,0
2023-02-22T06:18:56.352Z,0
2023-02-22T06:19:56.344Z,0
2023-02-22T06:20:56.321Z,0
2023-02-22T06:21:56.255Z,0
2023-02-22T06:22:56.009Z,0
2023-02-22T06:23:56.172Z,5
2023-02-22T06:24:58.175Z,5
2023-02-22T06:25:56.273Z,5
2023-02-22T06:26:56.105Z,5
2023-02-22T06:27:56.159Z,5
2023-02-22T06:28:55.825Z,5
2023-02-22T06:29:56.047Z,5
2023-02-22T06:30:56.170Z,5
2023-02-22T06:31:56.771Z,5
2023-02-22T06:32:55.961Z,5
2023-02-22T06:33:56.043Z,10
2023-02-22T06:34:55.823Z,10
2023-02-22T06:35:55.800Z,10
2023-02-22T06:36:55.778Z,10
2023-02-22T06:37:55.526Z,15
2023-02-22T06:38:55.676Z,15
2023-02-22T06:39:55.680Z,15
2023-02-22T06:40:55.629Z,20
2023-02-22T06:41:55.726Z,20
2023-02-22T06:42:55.552Z,20
2023-02-22T06:43:55.286Z,20
2023-02-22T06:44:56.849Z,25
2023-02-22T06:45:55.810Z,25
2023-02-22T06:46:55.449Z,25
2023-02-22T06:47:55.381Z,30
2023-02-22T06:48:55.442Z,30
2023-02-22T06:49:55.307Z,35
2023-02-22T06:50:55.309Z,35
2023-02-22T06:51:55.297Z,35
2023-02-22T06:52:55.324Z,40
2023-02-22T06:53:55.178Z,40
2023-02-22T06:54:55.255Z,40
2023-02-22T06:55:55.303Z,45
2023-02-22T06:56:55.076Z,45
2023-02-22T06:57:55.046Z,50
2023-02-22T06:58:55.048Z,55
2023-02-22T06:59:54.974Z,55
2023-02-22T07:00:55.340Z,60
2023-02-22T07:01:54.935Z,60
2023-02-22T07:02:54.986Z,60
2023-02-22T07:03:54.902Z,65
2023-02-22T07:04:54.865Z,65
2023-02-22T07:05:54.765Z,65
2023-02-22T07:06:54.756Z,65
2023-02-22T07:07:54.740Z,65
2023-02-22T07:08:54.854Z,70
2023-02-22T07:09:54.861Z,70
2023-02-22T07:10:54.619Z,70
2023-02-22T07:11:54.335Z,75
2023-02-22T07:12:54.550Z,75
2023-02-22T07:13:54.636Z,80
2023-02-22T07:14:54.470Z,80
2023-02-22T07:15:54.452Z,80
2023-02-22T07:16:54.408Z,85
2023-02-22T07:17:54.429Z,85
2023-02-22T07:18:54.357Z,90
2023-02-22T07:19:54.313Z,90
2023-02-22T07:20:54.336Z,95
2023-02-22T07:21:54.661Z,95
2023-02-22T07:22:53.996Z,100
2023-02-22T07:23:54.200Z,105
2023-02-22T07:24:54.172Z,105
2023-02-22T07:25:53.938Z,110
2023-02-22T07:26:54.154Z,115
2023-02-22T07:27:53.819Z,115
2023-02-22T07:28:54.047Z,115
2023-02-22T07:29:53.744Z,115
2023-02-22T07:30:53.890Z,120
2023-02-22T07:31:54.207Z,125
2023-02-22T07:32:54.644Z,125
2023-02-22T07:33:53.885Z,125
2023-02-22T07:34:53.881Z,125
2023-02-22T07:35:53.868Z,130
2023-02-22T07:36:53.898Z,135
2023-02-22T07:37:55.714Z,135
2023-02-22T07:38:53.679Z,140
2023-02-22T07:39:53.663Z,145
2023-02-22T07:40:53.503Z,155
2023-02-22T07:41:53.570Z,155
2023-02-22T07:42:53.555Z,160
2023-02-22T07:43:53.513Z,160
2023-02-22T07:44:53.541Z,165
2023-02-22T07:45:54.061Z,170
2023-02-22T07:46:53.424Z,175
2023-02-22T07:47:53.137Z,185
2023-02-22T07:48:53.384Z,185
2023-02-22T07:49:53.304Z,185
2023-02-22T07:50:53.317Z,190
2023-02-22T07:51:53.240Z,200
2023-02-22T07:52:53.265Z,200
2023-02-22T07:53:53.213Z,200
2023-02-22T07:54:53.138Z,205
2023-02-22T07:55:53.222Z,205
2023-02-22T07:56:53.188Z,205
2023-02-22T07:57:53.048Z,205
2023-02-22T07:58:53.009Z,205
2023-02-22T07:59:52.973Z,210
2023-02-22T08:00:52.741Z,215
2023-02-22T08:01:52.940Z,220
2023-02-22T08:02:53.128Z,225
2023-02-22T08:03:52.905Z,220
2023-02-22T08:04:52.864Z,235
2023-02-22T08:05:52.861Z,230
2023-02-22T08:06:52.624Z,240
2023-02-22T08:07:52.496Z,235
2023-02-22T08:08:52.512Z,235
2023-02-22T08:09:52.716Z,235
2023-02-22T08:10:52.622Z,240
2023-02-22T08:11:52.656Z,240
2023-02-22T08:12:52.704Z,250
2023-02-22T08:13:52.310Z,250
2023-02-22T08:14:52.146Z,250
2023-02-22T08:15:52.889Z,245
2023-02-22T08:16:52.669Z,245
2023-02-22T08:17:52.393Z,245
2023-02-22T08:18:51.869Z,245
2023-02-22T08:19:52.394Z,245
2023-02-22T08:20:52.362Z,250
2023-02-22T08:21:52.031Z,255
2023-02-22T08:22:52.003Z,260
2023-02-22T08:23:51.976Z,260
2023-02-22T08:24:52.291Z,260
2023-02-22T08:25:52.164Z,260
2023-02-22T08:26:52.088Z,265
2023-02-22T08:27:52.129Z,270
2023-02-22T08:28:52.140Z,275
2023-02-22T08:29:52.145Z,280
2023-02-22T08:30:51.932Z,280
2023-02-22T08:31:52.818Z,285
2023-02-22T08:32:52.640Z,290
2023-02-22T08:33:53.096Z,300
2023-02-22T08:34:51.925Z,300
2023-02-22T08:35:52.114Z,300
2023-02-22T08:36:51.524Z,305
2023-02-22T08:37:51.904Z,310
2023-02-22T08:38:51.978Z,310
2023-02-22T08:39:51.582Z,315
2023-02-22T08:40:52.456Z,320
2023-02-22T08:41:51.687Z,320
2023-02-22T08:42:51.619Z,320
2023-02-22T08:43:52.791Z,320
2023-02-22T08:44:51.545Z,325
2023-02-22T08:45:52.071Z,325
2023-02-22T08:46:51.455Z,330
2023-02-22T08:47:51.439Z,335
2023-02-22T08:48:51.390Z,340
2023-02-22T08:49:51.117Z,345
2023-02-22T08:50:51.699Z,350
2023-02-22T08:51:51.297Z,350
2023-02-22T08:52:51.271Z,355
2023-02-22T08:53:51.222Z,355
2023-02-22T08:54:50.990Z,360
2023-02-22T08:55:50.754Z,360
2023-02-22T08:56:51.185Z,360
2023-02-22T08:57:51.105Z,360
2023-02-22T08:58:51.082Z,360
2023-02-22T08:59:51.070Z,360
2023-02-22T09:00:51.029Z,360
2023-02-22T09:01:51.334Z,360
2023-02-22T09:02:50.977Z,360
2023-02-22T09:03:51.195Z,355
2023-02-22T09:04:50.886Z,355
2023-02-22T09:05:51.254Z,355
2023-02-22T09:06:50.700Z,355
2023-02-22T09:07:50.793Z,355
2023-02-22T09:08:50.786Z,355
2023-02-22T09:09:50.799Z,350
2023-02-22T09:10:50.744Z,350
2023-02-22T09:11:52.715Z,350
2023-02-22T09:12:51.326Z,345
2023-02-22T09:13:50.729Z,345
2023-02-22T09:14:51.172Z,345
2023-02-22T09:15:50.381Z,350
2023-02-22T09:16:50.862Z,350
2023-02-22T09:17:50.529Z,350
2023-02-22T09:18:53.797Z,350
2023-02-22T09:19:50.440Z,355
2023-02-22T09:20:50.458Z,355
2023-02-22T09:21:50.189Z,350
2023-02-22T09:22:50.096Z,350
2023-02-22T09:23:50.311Z,350
2023-02-22T09:24:50.285Z,355
2023-02-22T09:25:50.389Z,355
2023-02-22T09:26:50.250Z,355
2023-02-22T09:27:50.335Z,355
2023-02-22T09:28:50.285Z,355
2023-02-22T09:29:50.109Z,355
2023-02-22T09:30:50.348Z,355
2023-02-22T09:31:50.916Z,355
2023-02-22T09:32:51.058Z,355
2023-02-22T09:33:52.187Z,355
2023-02-22T09:34:50.005Z,355
2023-02-22T09:35:50.157Z,355
2023-02-22T09:36:49.928Z,360
2023-02-22T09:37:49.920Z,365
2023-02-22T09:38:49.853Z,365
2023-02-22T09:39:50.055Z,365
2023-02-22T09:40:50.131Z,365
2023-02-22T09:41:49.755Z,365
2023-02-22T09:42:49.580Z,365
2023-02-22T09:43:49.564Z,365
2023-02-22T09:44:49.726Z,370
2023-02-22T09:45:50.127Z,380
2023-02-22T09:46:49.607Z,375
2023-02-22T09:47:49.847Z,375
2023-02-22T09:48:49.616Z,375
2023-02-22T09:49:49.590Z,380
2023-02-22T09:50:49.496Z,375
2023-02-22T09:51:49.323Z,380
2023-02-22T09:52:49.446Z,380
2023-02-22T09:53:49.401Z,380
2023-02-22T09:54:49.399Z,385
2023-02-22T09:55:49.349Z,375
2023-02-22T09:56:49.342Z,375
2023-02-22T09:57:49.297Z,375
2023-02-22T09:58:51.087Z,370
2023-02-22T09:59:49.241Z,370
2023-02-22T10:00:49.276Z,370
2023-02-22T10:01:48.956Z,370
2023-02-22T10:02:49.184Z,375
2023-02-22T10:03:49.495Z,370
2023-02-22T10:04:49.213Z,370
2023-02-22T10:05:49.475Z,370
2023-02-22T10:06:49.079Z,370
2023-02-22T10:07:49.031Z,375
2023-02-22T10:08:49.014Z,375
2023-02-22T10:09:48.952Z,380
2023-02-22T10:10:48.686Z,385
2023-02-22T10:11:48.935Z,385
2023-02-22T10:12:48.900Z,390
2023-02-22T10:13:48.852Z,390
2023-02-22T10:14:51.012Z,395
2023-02-22T10:15:48.803Z,395
2023-02-22T10:16:49.040Z,400
2023-02-22T10:17:48.495Z,395
2023-02-22T10:18:48.708Z,395
2023-02-22T10:19:48.490Z,395
2023-02-22T10:20:48.667Z,400
2023-02-22T10:21:48.613Z,405
2023-02-22T10:22:48.593Z,400
2023-02-22T10:23:48.544Z,400
2023-02-22T10:24:48.531Z,400
2023-02-22T10:25:48.273Z,405
2023-02-22T10:26:48.509Z,405
2023-02-22T10:27:48.445Z,400
2023-02-22T10:28:48.202Z,400
2023-02-22T10:29:48.173Z,400
2023-02-22T10:30:48.425Z,400
2023-02-22T10:31:48.986Z,400
2023-02-22T10:32:48.461Z,400
2023-02-22T10:33:48.345Z,400
2023-02-22T10:34:48.019Z,395
2023-02-22T10:35:51.313Z,400
2023-02-22T10:36:48.237Z,400
2023-02-22T10:37:48.401Z,400
2023-02-22T10:38:48.266Z,400
2023-02-22T10:39:48.085Z,290
2023-02-22T10:40:47.877Z,305
2023-02-22T10:41:47.851Z,295
2023-02-22T10:42:48.052Z,410
2023-02-22T10:43:48.016Z,410
2023-02-22T10:44:47.791Z,410
2023-02-22T10:45:48.243Z,415
2023-02-22T10:46:47.789Z,415
2023-02-22T10:47:47.940Z,420
2023-02-22T10:48:47.706Z,425
2023-02-22T10:49:47.873Z,425
2023-02-22T10:50:47.904Z,430
2023-02-22T10:51:47.864Z,435
2023-02-22T10:52:47.990Z,440
2023-02-22T10:53:47.778Z,440
2023-02-22T10:54:47.739Z,445
2023-02-22T10:55:48.029Z,450
2023-02-22T10:56:47.719Z,450
2023-02-22T10:57:47.177Z,450
2023-02-22T10:58:47.640Z,455
2023-02-22T10:59:47.690Z,460
2023-02-22T11:00:49.127Z,460
2023-02-22T11:01:47.935Z,465
2023-02-22T11:02:47.298Z,470
2023-02-22T11:03:47.512Z,470
2023-02-22T11:04:47.767Z,480
2023-02-22T11:05:47.470Z,485
2023-02-22T11:06:47.368Z,480
2023-02-22T11:07:47.466Z,485
2023-02-22T11:08:47.401Z,490
2023-02-22T11:09:47.389Z,495
2023-02-22T11:10:47.337Z,495
2023-02-22T11:11:47.317Z,500
2023-02-22T11:12:47.082Z,505
2023-02-22T11:13:47.291Z,510
2023-02-22T11:14:47.267Z,505
2023-02-22T11:15:47.388Z,505
2023-02-22T11:16:47.730Z,505
2023-02-22T11:17:47.158Z,505
2023-02-22T11:18:46.989Z,505
2023-02-22T11:19:46.855Z,505
2023-02-22T11:20:47.157Z,500
2023-02-22T11:21:47.065Z,500
2023-02-22T11:22:46.804Z,510
2023-02-22T11:23:49.654Z,505
2023-02-22T11:24:59.938Z,505
2023-02-22T11:25:46.980Z,505
2023-02-22T11:26:46.949Z,505
2023-02-22T11:27:47.018Z,505
2023-02-22T11:28:46.707Z,505
2023-02-22T11:29:46.953Z,500
2023-02-22T11:30:47.684Z,500
2023-02-22T11:31:47.328Z,500
2023-02-22T11:32:46.785Z,500
2023-02-22T11:33:46.772Z,500
2023-02-22T11:34:47.485Z,500
2023-02-22T11:35:46.728Z,505
2023-02-22T11:36:46.882Z,500
2023-02-22T11:37:46.488Z,495
2023-02-22T11:38:46.400Z,495
2023-02-22T11:39:46.984Z,495
2023-02-22T11:40:47.039Z,495
2023-02-22T11:41:46.752Z,495
2023-02-22T11:42:46.563Z,490
2023-02-22T11:43:46.685Z,490
2023-02-22T11:44:46.505Z,490
2023-02-22T11:46:07.069Z,485
2023-02-22T11:46:46.791Z,485
2023-02-22T11:47:46.432Z,485
2023-02-22T11:48:46.500Z,485
2023-02-22T11:49:46.148Z,490
2023-02-22T11:50:45.929Z,480
2023-02-22T11:51:46.382Z,480
2023-02-22T11:52:46.140Z,475
2023-02-22T11:53:46.308Z,475
2023-02-22T11:54:46.297Z,470
2023-02-22T11:55:52.595Z,470
2023-02-22T11:56:49.011Z,465
2023-02-22T11:57:46.209Z,465
2023-02-22T11:58:46.217Z,460
2023-02-22T11:59:46.176Z,460
2023-02-22T12:00:45.923Z,460
2023-02-22T12:01:46.107Z,460
2023-02-22T12:03:01.938Z,455
2023-02-22T12:03:46.638Z,455
2023-02-22T12:04:46.909Z,455
2023-02-22T12:05:46.023Z,455
2023-02-22T12:06:46.061Z,460
2023-02-22T12:07:46.027Z,450
2023-02-22T12:08:45.806Z,455
2023-02-22T12:09:45.760Z,460
2023-02-22T12:10:45.672Z,455
2023-02-22T12:11:45.676Z,455
2023-02-22T12:12:45.726Z,460
2023-02-22T12:13:45.823Z,455
2023-02-22T12:14:45.576Z,450
2023-02-22T12:15:46.176Z,455
2023-02-22T12:16:45.551Z,445
2023-02-22T12:18:02.587Z,440
2023-02-22T12:18:45.519Z,440
2023-02-22T12:19:45.509Z,435
2023-02-22T12:20:45.464Z,435
2023-02-22T12:21:45.662Z,430
2023-02-22T12:22:45.641Z,430
2023-02-22T12:23:45.557Z,430
2023-02-22T12:24:45.788Z,430
2023-02-22T12:25:45.577Z,430
2023-02-22T12:26:45.565Z,430
2023-02-22T12:27:45.302Z,435
2023-02-22T12:28:46.144Z,435
2023-02-22T12:29:45.460Z,435
2023-02-22T12:30:45.845Z,440
2023-02-22T12:31:46.030Z,440
2023-02-22T12:32:45.751Z,440
2023-02-22T12:33:45.352Z,440
2023-02-22T12:34:45.233Z,445
2023-02-22T12:35:45.333Z,445
2023-02-22T12:36:45.115Z,445
2023-02-22T12:37:45.287Z,445
2023-02-22T12:38:44.842Z,450
2023-02-22T12:40:01.252Z,450
2023-02-22T12:40:45.249Z,450
2023-02-22T12:41:45.206Z,445
2023-02-22T12:42:45.202Z,445
2023-02-22T12:43:44.986Z,445
2023-02-22T12:44:44.914Z,440
2023-02-22T12:45:45.131Z,435
2023-02-22T12:46:45.619Z,430
2023-02-22T12:47:45.076Z,430
2023-02-22T12:48:45.050Z,430
2023-02-22T12:49:45.146Z,430
2023-02-22T12:50:44.781Z,425
2023-02-22T12:51:44.795Z,430
2023-02-22T12:52:44.506Z,425
2023-02-22T12:53:44.944Z,420
2023-02-22T12:54:44.811Z,425
2023-02-22T12:55:44.925Z,415
2023-02-22T12:56:44.869Z,415
2023-02-22T12:57:44.850Z,410
2023-02-22T12:58:44.814Z,405
2023-02-22T12:59:44.902Z,400
2023-02-22T13:00:44.894Z,395
2023-02-22T13:01:45.095Z,390
2023-02-22T13:02:44.727Z,390
2023-02-22T13:03:44.703Z,390
2023-02-22T13:04:44.662Z,390
2023-02-22T13:05:44.818Z,390
2023-02-22T13:06:44.643Z,395
2023-02-22T13:07:44.617Z,390
2023-02-22T13:08:44.577Z,390
2023-02-22T13:09:44.626Z,385
2023-02-22T13:10:44.588Z,385
2023-02-22T13:11:44.612Z,385
2023-02-22T13:12:44.276Z,385
2023-02-22T13:13:44.471Z,385
2023-02-22T13:14:44.212Z,385
2023-02-22T13:15:45.234Z,385
2023-02-22T13:16:44.549Z,385
2023-02-22T13:17:44.406Z,380
2023-02-22T13:18:44.623Z,380
2023-02-22T13:19:44.358Z,380
2023-02-22T13:20:44.327Z,380
2023-02-22T13:21:44.287Z,380
2023-02-22T13:22:43.830Z,380
2023-02-22T13:23:44.005Z,375
2023-02-22T13:24:46.362Z,375
2023-02-22T13:25:43.990Z,375
2023-02-22T13:26:44.096Z,375
2023-02-22T13:27:44.490Z,370
2023-02-22T13:28:44.123Z,370
2023-02-22T13:29:44.124Z,370
2023-02-22T13:30:43.976Z,365
2023-02-22T13:31:48.500Z,360
2023-02-22T13:32:44.132Z,360
2023-02-22T13:33:44.018Z,360
2023-02-22T13:34:44.012Z,355
2023-02-22T13:35:43.743Z,355
2023-02-22T13:36:43.473Z,355
2023-02-22T13:37:45.039Z,350
2023-02-22T13:38:43.425Z,350
2023-02-22T13:39:43.896Z,350
2023-02-22T13:40:43.854Z,350
2023-02-22T13:41:43.599Z,350
2023-02-22T13:42:46.347Z,350
2023-02-22T13:43:43.718Z,350
2023-02-22T13:44:43.522Z,355
2023-02-22T13:45:43.586Z,350
2023-02-22T13:46:43.825Z,350
2023-02-22T13:47:43.540Z,350
2023-02-22T13:48:43.752Z,350
2023-02-22T13:49:43.665Z,355
2023-02-22T13:50:43.646Z,355
2023-02-22T13:51:43.582Z,350
2023-02-22T13:52:43.348Z,350
2023-02-22T13:53:43.615Z,345
2023-02-22T13:54:43.519Z,345
2023-02-22T13:55:43.284Z,340
2023-02-22T13:56:43.508Z,345
2023-02-22T13:57:43.212Z,345
2023-02-22T13:58:42.983Z,340
2023-02-22T13:59:45.884Z,335
2023-02-22T14:00:43.403Z,330
2023-02-22T14:01:43.705Z,330
2023-02-22T14:02:43.112Z,330
2023-02-22T14:03:43.822Z,330
2023-02-22T14:04:43.507Z,325
2023-02-22T14:05:43.712Z,320
2023-02-22T14:06:43.318Z,320
2023-02-22T14:07:43.229Z,320
2023-02-22T14:08:44.411Z,315
2023-02-22T14:09:42.925Z,315
2023-02-22T14:10:44.815Z,315
2023-02-22T14:11:42.928Z,315
2023-02-22T14:12:43.132Z,310
2023-02-22T14:13:43.323Z,310